createdAt,value
2019-03-09T00:00:51.255Z,40.84
2019-03-09T00:01:56.329Z,41.11
2019-03-09T00:03:01.622Z,40.63
2019-03-09T00:04:06.929Z,40.71
2019-03-09T00:05:11.988Z,40.58
2019-03-09T00:06:17.040Z,40.60
2019-03-09T00:07:22.372Z,40.65
2019-03-09T00:08:27.841Z,41.06
2019-03-09T00:09:33.193Z,41.50
2019-03-09T00:10:38.281Z,41.34
2019-03-09T00:11:43.569Z,40.98
2019-03-09T00:12:48.546Z,41.05
2019-03-09T00:13:53.301Z,41.18
2019-03-09T00:14:58.744Z,40.86
2019-03-09T00:16:03.237Z,41.22
2019-03-09T00:17:08.499Z,41.38
2019-03-09T00:18:13.760Z,41.54
2019-03-09T00:19:19.323Z,41.43
2019-03-09T00:20:24.363Z,41.28
2019-03-09T00:21:30.071Z,41.66
2019-03-09T00:22:34.756Z,41.43
2019-03-09T00:23:58.378Z,41.21
2019-03-09T00:25:10.654Z,41.15
2019-03-09T00:26:37.782Z,40.75
2019-03-09T00:27:47.381Z,41.17
2019-03-09T00:29:08.671Z,40.95
2019-03-09T00:30:34.995Z,42.00
2019-03-09T00:31:45.394Z,42.01
2019-03-09T00:32:50.649Z,42.36
2019-03-09T00:33:55.739Z,42.48
2019-03-09T00:35:00.492Z,42.84
2019-03-09T00:36:05.742Z,43.75
2019-03-09T00:37:11.011Z,43.49
2019-03-09T00:38:15.695Z,43.99
2019-03-09T00:39:20.407Z,44.57
2019-03-09T00:40:25.374Z,44.35
2019-03-09T00:41:31.222Z,44.47
2019-03-09T00:42:36.812Z,45.34
2019-03-09T00:43:42.308Z,44.25
2019-03-09T00:44:47.698Z,46.07
2019-03-09T00:45:52.976Z,45.28
2019-03-09T00:46:57.687Z,45.53
2019-03-09T00:48:02.925Z,46.53
2019-03-09T00:49:07.784Z,47.04
2019-03-09T00:50:12.802Z,47.60
2019-03-09T00:51:18.065Z,46.85
2019-03-09T00:52:23.146Z,47.71
2019-03-09T00:53:28.135Z,47.89
2019-03-09T00:54:33.728Z,47.09
2019-03-09T00:55:38.678Z,48.14
2019-03-09T00:56:43.646Z,47.52
2019-03-09T00:57:48.928Z,47.16
2019-03-09T00:58:53.889Z,47.10
2019-03-09T00:59:59.741Z,47.49
2019-03-09T01:01:04.769Z,47.69
2019-03-09T01:02:10.030Z,46.90
2019-03-09T01:03:15.022Z,46.84
2019-03-09T01:04:20.607Z,46.01
2019-03-09T01:05:25.354Z,47.51
2019-03-09T01:06:30.369Z,45.77
2019-03-09T01:07:34.828Z,45.89
2019-03-09T01:08:39.547Z,46.46
2019-03-09T01:09:44.023Z,47.51
2019-03-09T01:10:48.728Z,48.42
2019-03-09T01:11:54.041Z,48.40
2019-03-09T01:12:59.178Z,49.64
2019-03-09T01:14:04.456Z,52.59
2019-03-09T01:15:09.934Z,56.33
2019-03-09T01:16:14.621Z,55.19
2019-03-09T01:17:19.574Z,53.40
2019-03-09T01:18:24.894Z,53.18
2019-03-09T01:19:30.305Z,53.97
2019-03-09T01:20:34.794Z,52.65
2019-03-09T01:21:39.922Z,54.30
2019-03-09T01:22:45.163Z,52.40
2019-03-09T01:23:50.173Z,52.12
2019-03-09T01:24:55.238Z,51.49
2019-03-09T01:26:01.980Z,52.43
2019-03-09T01:27:07.189Z,51.35
2019-03-09T01:28:12.154Z,51.10
2019-03-09T01:29:16.863Z,51.98
2019-03-09T01:30:21.928Z,50.91
2019-03-09T01:31:27.300Z,50.99
2019-03-09T01:32:32.770Z,51.36
2019-03-09T01:33:37.778Z,50.79
2019-03-09T01:34:43.070Z,51.78
2019-03-09T01:35:47.579Z,50.68
2019-03-09T01:36:52.347Z,50.69
2019-03-09T01:37:57.335Z,50.81
2019-03-09T01:39:02.027Z,49.54
2019-03-09T01:40:08.210Z,49.18
2019-03-09T01:41:12.906Z,49.51
2019-03-09T01:42:18.237Z,50.34
2019-03-09T01:43:23.579Z,49.20
2019-03-09T01:44:28.554Z,48.88
2019-03-09T01:45:33.468Z,49.79
2019-03-09T01:46:38.439Z,49.05
2019-03-09T01:47:42.872Z,49.20
2019-03-09T01:48:47.684Z,49.30
2019-03-09T01:49:52.827Z,49.09
2019-03-09T01:50:57.862Z,48.07
2019-03-09T01:52:03.275Z,49.77
2019-03-09T01:53:08.082Z,48.40
2019-03-09T01:54:13.064Z,48.81
2019-03-09T01:55:18.052Z,50.73
2019-03-09T01:56:23.326Z,51.21
2019-03-09T01:57:27.765Z,51.06
2019-03-09T01:58:33.104Z,51.86
2019-03-09T01:59:38.093Z,52.20
2019-03-09T02:00:43.415Z,51.62
2019-03-09T02:01:48.691Z,51.69
2019-03-09T02:02:53.643Z,51.68
2019-03-09T02:03:58.631Z,52.56
2019-03-09T02:05:03.623Z,51.90
2019-03-09T02:06:08.683Z,53.76
2019-03-09T02:07:14.081Z,52.80
2019-03-09T02:08:19.093Z,53.01
2019-03-09T02:09:24.211Z,53.35
2019-03-09T02:10:29.215Z,53.64
2019-03-09T02:11:34.182Z,53.70
2019-03-09T02:12:38.886Z,56.61
2019-03-09T02:13:43.976Z,56.86
2019-03-09T02:14:48.956Z,54.97
2019-03-09T02:15:57.685Z,56.16
2019-03-09T02:17:02.388Z,56.39
2019-03-09T02:18:07.375Z,55.20
2019-03-09T02:19:12.436Z,56.24
2019-03-09T02:20:17.174Z,54.04
2019-03-09T02:21:22.743Z,54.36
2019-03-09T02:22:27.196Z,54.25
2019-03-09T02:23:32.284Z,53.78
2019-03-09T02:24:37.270Z,53.08
2019-03-09T02:25:42.840Z,53.92
2019-03-09T02:26:47.582Z,54.06
2019-03-09T02:27:52.854Z,53.78
2019-03-09T02:28:58.157Z,54.06
2019-03-09T02:30:02.983Z,53.38
2019-03-09T02:31:08.034Z,53.16
2019-03-09T02:32:13.265Z,52.33
2019-03-09T02:33:18.359Z,53.03
2019-03-09T02:34:23.710Z,54.18
2019-03-09T02:35:28.738Z,53.30
2019-03-09T02:36:33.598Z,53.44
2019-03-09T02:37:38.827Z,52.99
2019-03-09T02:38:49.081Z,54.04
2019-03-09T02:39:58.638Z,53.13
2019-03-09T02:41:03.434Z,53.01
2019-03-09T02:42:08.674Z,55.71
2019-03-09T02:43:13.968Z,53.96
2019-03-09T02:44:18.928Z,53.33
2019-03-09T02:45:24.317Z,52.92
2019-03-09T02:46:30.140Z,52.85
2019-03-09T02:47:34.823Z,52.69
2019-03-09T02:48:39.827Z,53.76
2019-03-09T02:49:45.164Z,52.86
2019-03-09T02:50:59.172Z,53.64
2019-03-09T02:52:03.864Z,52.88
2019-03-09T02:53:09.100Z,53.10
2019-03-09T02:54:13.789Z,53.23
2019-03-09T02:55:18.231Z,52.85
2019-03-09T02:56:23.258Z,52.83
2019-03-09T02:57:28.326Z,52.68
2019-03-09T02:58:33.713Z,52.95
2019-03-09T02:59:38.437Z,53.32
2019-03-09T03:00:48.414Z,52.58
2019-03-09T03:02:18.255Z,52.46
2019-03-09T03:03:23.811Z,51.52
2019-03-09T03:04:28.543Z,52.86
2019-03-09T03:05:33.586Z,51.95
2019-03-09T03:06:38.472Z,52.37
2019-03-09T03:07:43.429Z,52.82
2019-03-09T03:08:48.985Z,52.84
2019-03-09T03:09:53.473Z,52.33
2019-03-09T03:10:58.533Z,51.76
2019-03-09T03:12:03.081Z,51.52
2019-03-09T03:13:08.559Z,53.03
2019-03-09T03:14:14.121Z,52.52
2019-03-09T03:15:32.600Z,51.22
2019-03-09T03:16:38.169Z,51.10
2019-03-09T03:17:43.526Z,50.92
2019-03-09T03:18:48.507Z,52.28
2019-03-09T03:19:53.537Z,52.10
2019-03-09T03:20:58.580Z,53.00
2019-03-09T03:22:03.319Z,52.07
2019-03-09T03:23:08.082Z,51.45
2019-03-09T03:24:12.752Z,51.79
2019-03-09T03:25:17.806Z,51.71
2019-03-09T03:26:22.846Z,51.73
2019-03-09T03:27:27.987Z,51.40
2019-03-09T03:28:32.684Z,50.71
2019-03-09T03:29:37.710Z,51.44
2019-03-09T03:30:42.950Z,50.93
2019-03-09T03:31:47.935Z,51.33
2019-03-09T03:32:54.637Z,51.29
2019-03-09T03:33:59.388Z,51.43
2019-03-09T03:35:04.551Z,52.14
2019-03-09T03:36:09.518Z,52.17
2019-03-09T03:37:14.297Z,51.50
2019-03-09T03:38:19.600Z,53.55
2019-03-09T03:39:24.616Z,53.29
2019-03-09T03:40:29.929Z,51.10
2019-03-09T03:41:34.745Z,52.42
2019-03-09T03:42:39.989Z,52.92
2019-03-09T03:43:44.679Z,52.52
2019-03-09T03:44:49.676Z,51.87
2019-03-09T03:45:55.121Z,51.97
2019-03-09T03:47:00.208Z,52.46
2019-03-09T03:48:05.161Z,53.67
2019-03-09T03:49:09.859Z,53.58
2019-03-09T03:50:14.838Z,52.30
2019-03-09T03:51:19.656Z,53.31
2019-03-09T03:52:24.662Z,53.57
2019-03-09T03:53:30.049Z,53.15
2019-03-09T03:54:35.903Z,55.91
2019-03-09T03:55:41.019Z,54.79
2019-03-09T03:56:47.444Z,54.57
2019-03-09T03:57:53.149Z,54.21
2019-03-09T03:58:57.696Z,53.60
2019-03-09T04:00:03.002Z,54.26
2019-03-09T04:01:07.738Z,53.77
2019-03-09T04:02:12.712Z,53.32
2019-03-09T04:03:18.238Z,53.92
2019-03-09T04:04:23.221Z,53.52
2019-03-09T04:05:28.425Z,53.36
2019-03-09T04:06:34.087Z,52.21
2019-03-09T04:07:39.363Z,53.53
2019-03-09T04:08:44.693Z,53.47
2019-03-09T04:09:49.971Z,54.00
2019-03-09T04:10:55.633Z,53.41
2019-03-09T04:12:00.943Z,53.16
2019-03-09T04:13:05.939Z,54.73
2019-03-09T04:14:11.278Z,52.68
2019-03-09T04:15:16.247Z,52.87
2019-03-09T04:16:21.262Z,53.83
2019-03-09T04:17:26.001Z,52.96
2019-03-09T04:18:31.811Z,52.69
2019-03-09T04:19:37.082Z,53.29
2019-03-09T04:20:42.884Z,52.15
2019-03-09T04:21:48.565Z,52.14
2019-03-09T04:22:53.729Z,55.05
2019-03-09T04:23:58.420Z,53.15
2019-03-09T04:25:03.409Z,53.17
2019-03-09T04:26:09.015Z,52.38
2019-03-09T04:27:13.728Z,52.53
2019-03-09T04:28:18.715Z,53.02
2019-03-09T04:29:23.694Z,53.14
2019-03-09T04:30:28.738Z,52.52
2019-03-09T04:31:36.998Z,53.06
2019-03-09T04:32:42.300Z,52.10
2019-03-09T04:33:47.554Z,52.19
2019-03-09T04:34:52.308Z,53.14
2019-03-09T04:35:56.990Z,53.00
2019-03-09T04:37:02.729Z,52.03
2019-03-09T04:38:07.396Z,51.60
2019-03-09T04:39:12.637Z,51.72
2019-03-09T04:40:17.247Z,53.19
2019-03-09T04:41:22.245Z,52.42
2019-03-09T04:42:27.101Z,53.35
2019-03-09T04:43:32.177Z,53.80
2019-03-09T04:44:36.970Z,53.69
2019-03-09T04:45:41.977Z,53.18
2019-03-09T04:46:47.304Z,53.87
2019-03-09T04:47:52.536Z,53.52
2019-03-09T04:48:57.519Z,53.44
2019-03-09T04:50:02.043Z,53.40
2019-03-09T04:51:06.743Z,53.37
2019-03-09T04:52:11.987Z,54.19
2019-03-09T04:53:17.251Z,54.05
2019-03-09T04:54:22.223Z,53.62
2019-03-09T04:55:27.497Z,53.01
2019-03-09T04:56:32.373Z,52.44
2019-03-09T04:57:37.379Z,51.99
2019-03-09T04:58:42.631Z,52.95
2019-03-09T04:59:47.941Z,52.49
2019-03-09T05:00:52.974Z,51.78
2019-03-09T05:01:58.036Z,52.24
2019-03-09T05:03:03.382Z,52.01
2019-03-09T05:04:51.250Z,52.41
2019-03-09T05:05:56.267Z,51.16
2019-03-09T05:07:01.569Z,51.77
2019-03-09T05:08:27.314Z,51.76
2019-03-09T05:10:00.299Z,51.93
2019-03-09T05:11:15.281Z,51.63
2019-03-09T05:12:20.243Z,51.62
2019-03-09T05:13:33.858Z,53.59
2019-03-09T05:14:38.586Z,52.17
2019-03-09T05:15:44.191Z,52.32
2019-03-09T05:16:49.316Z,52.66
2019-03-09T05:17:54.621Z,52.70
2019-03-09T05:20:18.688Z,53.02
2019-03-09T05:21:23.381Z,53.25
2019-03-09T05:22:28.406Z,52.78
2019-03-09T05:23:33.600Z,52.42
2019-03-09T05:24:39.212Z,53.20
2019-03-09T05:25:44.233Z,51.52
2019-03-09T05:26:48.950Z,50.72
2019-03-09T05:27:54.491Z,52.11
2019-03-09T05:28:59.927Z,52.04
2019-03-09T05:30:05.236Z,51.72
2019-03-09T05:31:10.238Z,51.47
2019-03-09T05:32:15.725Z,52.55
2019-03-09T05:33:20.751Z,50.81
2019-03-09T05:34:26.317Z,50.96
2019-03-09T05:35:31.047Z,50.67
2019-03-09T05:36:39.352Z,51.78
2019-03-09T05:37:44.098Z,50.49
2019-03-09T05:38:48.859Z,51.39
2019-03-09T05:39:53.646Z,50.85
2019-03-09T05:40:58.932Z,50.53
2019-03-09T05:42:03.614Z,51.41
2019-03-09T05:43:08.865Z,50.28
2019-03-09T05:44:14.245Z,50.10
2019-03-09T05:45:19.195Z,51.16
2019-03-09T05:46:24.386Z,50.42
2019-03-09T05:47:29.971Z,50.06
2019-03-09T05:48:34.964Z,50.28
2019-03-09T05:49:39.965Z,50.38
2019-03-09T05:50:45.236Z,50.40
2019-03-09T05:52:33.145Z,51.00
2019-03-09T05:53:38.413Z,50.29
2019-03-09T05:54:43.384Z,49.92
2019-03-09T05:55:48.367Z,49.85
2019-03-09T05:56:53.140Z,49.66
2019-03-09T05:57:58.176Z,48.68
2019-03-09T05:59:03.215Z,48.87
2019-03-09T06:00:08.550Z,48.84
2019-03-09T06:01:13.317Z,49.24
2019-03-09T06:02:18.034Z,49.27
2019-03-09T06:03:23.298Z,49.76
2019-03-09T06:04:28.565Z,49.42
2019-03-09T06:05:38.240Z,49.91
2019-03-09T06:06:43.553Z,49.57
2019-03-09T06:07:48.768Z,50.59
2019-03-09T06:08:53.562Z,50.08
2019-03-09T06:09:58.281Z,50.38
2019-03-09T06:11:03.255Z,50.47
2019-03-09T06:12:08.825Z,50.49
2019-03-09T06:13:13.535Z,50.35
2019-03-09T06:14:18.558Z,50.12
2019-03-09T06:15:23.289Z,50.97
2019-03-09T06:16:28.670Z,49.84
2019-03-09T06:17:34.009Z,50.44
2019-03-09T06:18:39.291Z,51.09
2019-03-09T06:19:44.263Z,50.35
2019-03-09T06:20:49.262Z,49.82
2019-03-09T06:21:54.960Z,49.59
2019-03-09T06:23:00.172Z,49.39
2019-03-09T06:24:05.134Z,49.11
2019-03-09T06:25:10.591Z,48.54
2019-03-09T06:26:15.878Z,49.53
2019-03-09T06:27:21.277Z,50.49
2019-03-09T06:28:26.375Z,49.99
2019-03-09T06:29:31.707Z,49.04
2019-03-09T06:30:36.981Z,49.33
2019-03-09T06:31:46.105Z,48.78
2019-03-09T06:33:18.779Z,49.38
2019-03-09T06:34:23.770Z,48.80
2019-03-09T06:35:29.075Z,49.46
2019-03-09T06:37:06.873Z,49.08
2019-03-09T06:38:44.110Z,48.37
2019-03-09T06:39:51.450Z,48.59
2019-03-09T06:41:02.996Z,49.64
2019-03-09T06:42:38.412Z,48.62
2019-03-09T06:43:43.989Z,48.85
2019-03-09T06:44:48.961Z,48.48
2019-03-09T06:45:54.232Z,48.68
2019-03-09T06:46:59.192Z,49.08
2019-03-09T06:48:03.650Z,48.46
2019-03-09T06:49:08.883Z,48.35
2019-03-09T06:50:15.599Z,49.18
2019-03-09T06:51:20.880Z,49.27
2019-03-09T06:52:25.817Z,49.00
2019-03-09T06:53:33.806Z,47.80
2019-03-09T06:54:38.748Z,48.37
2019-03-09T06:55:43.439Z,48.76
2019-03-09T06:56:48.679Z,49.15
2019-03-09T06:57:53.366Z,48.95
2019-03-09T06:58:58.101Z,48.31
2019-03-09T07:00:07.086Z,48.66
2019-03-09T07:01:20.375Z,47.50
2019-03-09T07:02:25.651Z,48.40
2019-03-09T07:03:31.297Z,46.98
2019-03-09T07:04:36.248Z,47.10
2019-03-09T07:05:41.527Z,47.51
2019-03-09T07:06:46.809Z,47.66
2019-03-09T07:07:52.089Z,47.22
2019-03-09T07:08:57.094Z,47.78
2019-03-09T07:10:02.415Z,47.77
2019-03-09T07:11:07.747Z,47.17
2019-03-09T07:12:12.760Z,48.44
2019-03-09T07:13:17.801Z,48.43
2019-03-09T07:14:58.352Z,47.65
2019-03-09T07:16:03.590Z,46.90
2019-03-09T07:17:08.037Z,46.91
2019-03-09T07:18:24.018Z,48.61
2019-03-09T07:19:28.451Z,47.79
2019-03-09T07:20:35.153Z,48.28
2019-03-09T07:21:40.167Z,49.11
2019-03-09T07:22:45.228Z,47.94
2019-03-09T07:23:49.927Z,47.57
2019-03-09T07:24:54.381Z,47.76
2019-03-09T07:25:59.053Z,48.27
2019-03-09T07:27:04.085Z,47.70
2019-03-09T07:28:10.537Z,47.69
2019-03-09T07:29:15.508Z,47.16
2019-03-09T07:30:20.237Z,47.65
2019-03-09T07:31:25.181Z,48.15
2019-03-09T07:32:29.949Z,48.05
2019-03-09T07:33:35.206Z,47.25
2019-03-09T07:34:40.489Z,47.06
2019-03-09T07:35:45.336Z,47.55
2019-03-09T07:36:50.100Z,47.87
2019-03-09T07:37:55.369Z,46.95
2019-03-09T07:39:00.085Z,48.36
2019-03-09T07:40:04.960Z,47.15
2019-03-09T07:41:10.230Z,47.10
2019-03-09T07:42:15.212Z,46.97
2019-03-09T07:43:20.782Z,46.27
2019-03-09T07:44:26.029Z,46.23
2019-03-09T07:45:31.037Z,46.08
2019-03-09T07:46:35.729Z,46.98
2019-03-09T07:47:40.422Z,46.52
2019-03-09T07:48:45.381Z,46.75
2019-03-09T07:49:50.320Z,46.19
2019-03-09T07:50:55.272Z,45.81
2019-03-09T07:52:00.891Z,45.00
2019-03-09T07:53:05.619Z,46.84
2019-03-09T07:54:10.606Z,46.66
2019-03-09T07:55:15.566Z,46.34
2019-03-09T07:56:20.862Z,46.23
2019-03-09T07:57:25.877Z,46.66
2019-03-09T07:58:30.927Z,46.91
2019-03-09T07:59:36.208Z,46.51
2019-03-09T08:00:41.012Z,46.22
2019-03-09T08:01:45.955Z,47.20
2019-03-09T08:02:51.194Z,45.97
2019-03-09T08:03:56.200Z,46.36
2019-03-09T08:05:01.241Z,46.66
2019-03-09T08:06:05.975Z,47.46
2019-03-09T08:07:11.328Z,47.46
2019-03-09T08:08:16.363Z,48.23
2019-03-09T08:09:21.654Z,47.12
2019-03-09T08:10:26.468Z,47.19
2019-03-09T08:11:32.223Z,45.57
2019-03-09T08:12:37.304Z,46.16
2019-03-09T08:13:42.579Z,46.93
2019-03-09T08:14:47.308Z,47.93
2019-03-09T08:15:52.673Z,48.26
2019-03-09T08:16:57.677Z,47.92
2019-03-09T08:18:02.710Z,47.05
2019-03-09T08:19:07.716Z,46.64
2019-03-09T08:20:12.186Z,47.40
2019-03-09T08:21:17.458Z,47.00
2019-03-09T08:22:22.073Z,46.88
2019-03-09T08:23:27.135Z,46.48
2019-03-09T08:24:32.168Z,46.59
2019-03-09T08:25:37.457Z,47.22
2019-03-09T08:26:42.184Z,46.69
2019-03-09T08:27:46.963Z,47.55
2019-03-09T08:28:52.014Z,47.53
2019-03-09T08:29:57.001Z,47.21
2019-03-09T08:31:02.243Z,48.30
2019-03-09T08:32:07.223Z,47.49
2019-03-09T08:33:12.452Z,47.18
2019-03-09T08:34:17.460Z,46.21
2019-03-09T08:35:22.704Z,47.01
2019-03-09T08:36:27.811Z,47.18
2019-03-09T08:37:33.412Z,46.72
2019-03-09T08:38:38.127Z,46.36
2019-03-09T08:39:43.663Z,46.23
2019-03-09T08:40:48.659Z,46.62
2019-03-09T08:41:53.667Z,46.81
2019-03-09T08:42:58.951Z,46.87
2019-03-09T08:44:03.785Z,47.30
2019-03-09T08:45:09.093Z,46.90
2019-03-09T08:46:13.861Z,46.84
2019-03-09T08:47:18.833Z,46.74
2019-03-09T08:48:23.555Z,46.74
2019-03-09T08:49:29.095Z,46.72
2019-03-09T08:50:34.221Z,46.57
2019-03-09T08:51:39.444Z,46.87
2019-03-09T08:52:44.336Z,46.64
2019-03-09T08:53:49.085Z,46.87
2019-03-09T08:54:54.034Z,46.34
2019-03-09T08:55:59.281Z,45.55
2019-03-09T08:57:04.039Z,45.69
2019-03-09T08:58:08.984Z,45.93
2019-03-09T08:59:13.798Z,46.80
2019-03-09T09:00:23.682Z,46.24
2019-03-09T09:01:28.404Z,45.36
2019-03-09T09:02:33.071Z,45.80
2019-03-09T09:03:38.744Z,45.14
2019-03-09T09:04:44.059Z,45.63
2019-03-09T09:05:58.172Z,44.54
2019-03-09T09:07:03.458Z,45.81
2019-03-09T09:08:08.598Z,45.32
2019-03-09T09:09:13.566Z,44.33
2019-03-09T09:10:18.277Z,45.20
2019-03-09T09:11:23.213Z,44.28
2019-03-09T09:12:27.889Z,44.01
2019-03-09T09:13:33.321Z,44.32
2019-03-09T09:14:38.334Z,43.82
2019-03-09T09:15:43.632Z,43.92
2019-03-09T09:16:48.853Z,43.92
2019-03-09T09:17:53.527Z,43.59
2019-03-09T09:18:58.198Z,43.51
2019-03-09T09:20:03.484Z,44.46
2019-03-09T09:21:08.480Z,43.57
2019-03-09T09:22:13.789Z,43.10
2019-03-09T09:23:18.223Z,43.40
2019-03-09T09:24:23.497Z,43.15
2019-03-09T09:25:28.280Z,43.09
2019-03-09T09:26:33.274Z,43.35
2019-03-09T09:27:38.015Z,43.48
2019-03-09T09:28:43.030Z,43.01
2019-03-09T09:29:47.513Z,43.97
2019-03-09T09:30:52.234Z,43.60
2019-03-09T09:31:58.140Z,43.89
2019-03-09T09:33:03.499Z,43.47
2019-03-09T09:34:07.971Z,42.83
2019-03-09T09:35:12.981Z,43.82
2019-03-09T09:36:18.582Z,42.82
2019-03-09T09:37:23.602Z,43.23
2019-03-09T09:38:28.347Z,42.97
2019-03-09T09:39:33.809Z,43.69
2019-03-09T09:40:38.802Z,42.35
2019-03-09T09:41:43.508Z,43.78
2019-03-09T09:42:48.806Z,42.96
2019-03-09T09:43:54.625Z,43.00
2019-03-09T09:44:59.697Z,42.78
2019-03-09T09:46:04.438Z,43.27
2019-03-09T09:47:09.655Z,43.18
2019-03-09T09:48:14.930Z,43.11
2019-03-09T09:49:20.513Z,42.61
2019-03-09T09:50:25.565Z,42.00
2019-03-09T09:51:30.568Z,42.54
2019-03-09T09:52:35.585Z,42.41
2019-03-09T09:53:40.917Z,42.78
2019-03-09T09:54:45.651Z,41.82
2019-03-09T09:55:50.325Z,42.07
2019-03-09T09:56:55.338Z,41.95
2019-03-09T09:58:00.087Z,42.09
2019-03-09T09:59:04.810Z,41.60
2019-03-09T10:00:13.283Z,41.81
2019-03-09T10:01:18.240Z,42.43
2019-03-09T10:02:23.257Z,41.51
2019-03-09T10:03:27.936Z,41.79
2019-03-09T10:04:33.980Z,41.83
2019-03-09T10:05:38.677Z,41.58
2019-03-09T10:06:43.356Z,42.28
2019-03-09T10:07:48.053Z,41.67
2019-03-09T10:08:53.315Z,41.10
2019-03-09T10:09:58.631Z,40.69
2019-03-09T10:11:04.091Z,41.13
2019-03-09T10:12:08.793Z,40.28
2019-03-09T10:13:13.759Z,41.13
2019-03-09T10:14:19.397Z,40.79
2019-03-09T10:15:25.609Z,40.19
2019-03-09T10:16:31.673Z,39.81
2019-03-09T10:17:36.356Z,40.15
2019-03-09T10:18:41.301Z,41.19
2019-03-09T10:19:46.034Z,40.51
2019-03-09T10:20:51.273Z,40.40
2019-03-09T10:21:56.550Z,40.59
2019-03-09T10:23:04.713Z,41.01
2019-03-09T10:24:08.761Z,40.11
2019-03-09T10:25:14.766Z,39.40
2019-03-09T10:26:19.488Z,40.75
2019-03-09T10:27:24.752Z,40.23
2019-03-09T10:28:29.744Z,40.56
2019-03-09T10:29:35.253Z,40.16
2019-03-09T10:30:40.678Z,39.54
2019-03-09T10:31:45.789Z,40.11
2019-03-09T10:32:51.156Z,39.38
2019-03-09T10:33:56.396Z,39.29
2019-03-09T10:35:01.378Z,39.06
2019-03-09T10:36:06.616Z,38.93
2019-03-09T10:37:12.025Z,38.87
2019-03-09T10:38:17.297Z,38.88
2019-03-09T10:39:22.286Z,38.68
2019-03-09T10:40:26.731Z,39.35
2019-03-09T10:41:32.135Z,38.74
2019-03-09T10:42:37.457Z,39.12
2019-03-09T10:43:42.798Z,41.01
2019-03-09T10:44:47.255Z,39.85
2019-03-09T10:45:52.506Z,40.67
2019-03-09T10:46:57.788Z,40.21
2019-03-09T10:48:04.555Z,40.07
2019-03-09T10:49:09.863Z,39.74
2019-03-09T10:50:15.013Z,39.79
2019-03-09T10:51:19.988Z,39.83
2019-03-09T10:52:24.708Z,40.11
2019-03-09T10:53:29.952Z,40.30
2019-03-09T10:54:36.181Z,40.06
2019-03-09T10:55:42.666Z,40.10
2019-03-09T10:56:48.254Z,39.44
2019-03-09T10:57:53.227Z,40.28
2019-03-09T10:58:58.216Z,40.17
2019-03-09T11:00:03.540Z,40.56
2019-03-09T11:01:09.615Z,39.98
2019-03-09T11:02:14.706Z,39.43
2019-03-09T11:03:19.998Z,40.27
2019-03-09T11:04:27.842Z,41.44
2019-03-09T11:05:31.776Z,39.80
2019-03-09T11:06:36.752Z,39.28
2019-03-09T11:07:41.719Z,40.09
2019-03-09T11:08:46.960Z,38.72
2019-03-09T11:09:51.635Z,39.64
2019-03-09T11:10:56.110Z,38.95
2019-03-09T11:12:01.161Z,39.22
2019-03-09T11:13:05.997Z,39.45
2019-03-09T11:14:11.252Z,39.96
2019-03-09T11:15:16.382Z,39.46
2019-03-09T11:16:21.105Z,38.98
2019-03-09T11:17:26.457Z,38.73
2019-03-09T11:18:31.858Z,39.63
2019-03-09T11:19:36.460Z,39.24
2019-03-09T11:20:41.413Z,39.11
2019-03-09T11:21:46.573Z,38.45
2019-03-09T11:22:51.810Z,38.46
2019-03-09T11:23:57.087Z,37.93
2019-03-09T11:25:03.671Z,38.89
2019-03-09T11:26:08.533Z,38.60
2019-03-09T11:27:13.505Z,38.38
2019-03-09T11:28:18.489Z,38.66
2019-03-09T11:29:23.174Z,38.26
2019-03-09T11:30:28.236Z,38.78
2019-03-09T11:31:33.271Z,38.42
2019-03-09T11:32:38.261Z,38.24
2019-03-09T11:33:43.507Z,37.65
2019-03-09T11:34:48.781Z,38.22
2019-03-09T11:35:53.813Z,37.69
2019-03-09T11:36:58.754Z,37.97
2019-03-09T11:38:04.105Z,37.39
2019-03-09T11:39:09.300Z,37.17
2019-03-09T11:40:14.825Z,38.26
2019-03-09T11:41:19.834Z,37.09
2019-03-09T11:42:24.972Z,36.65
2019-03-09T11:43:29.654Z,37.12
2019-03-09T11:44:35.113Z,36.39
2019-03-09T11:45:40.170Z,36.79
2019-03-09T11:46:45.143Z,36.68
2019-03-09T11:47:50.162Z,35.57
2019-03-09T11:48:55.228Z,36.44
2019-03-09T11:50:00.400Z,37.59
2019-03-09T11:51:05.356Z,36.73
2019-03-09T11:52:19.477Z,32.67
2019-03-09T11:53:16.797Z,31.73
2019-03-09T11:54:22.078Z,30.02
2019-03-09T11:55:26.893Z,32.95
2019-03-09T11:56:31.438Z,34.68
2019-03-09T11:57:36.970Z,33.48
2019-03-09T11:58:42.265Z,33.57
2019-03-09T11:59:47.267Z,35.20
2019-03-09T12:00:52.294Z,35.83
2019-03-09T12:01:57.569Z,34.90
2019-03-09T12:03:02.327Z,34.40
2019-03-09T12:04:07.038Z,33.46
2019-03-09T12:05:12.428Z,31.25
2019-03-09T12:06:17.665Z,33.59
2019-03-09T12:07:22.342Z,30.09
2019-03-09T12:08:27.695Z,31.20
2019-03-09T12:09:32.372Z,30.68
2019-03-09T12:10:37.351Z,30.70
2019-03-09T12:11:43.828Z,31.13
2019-03-09T12:12:49.924Z,31.48
2019-03-09T12:13:54.886Z,32.24
2019-03-09T12:14:59.866Z,32.66
2019-03-09T12:16:04.883Z,31.64
2019-03-09T12:17:12.337Z,32.46
2019-03-09T12:18:16.371Z,31.66
2019-03-09T12:19:21.058Z,30.74
2019-03-09T12:20:27.756Z,30.45
2019-03-09T12:21:33.102Z,30.50
2019-03-09T12:22:37.943Z,31.45
2019-03-09T12:23:43.025Z,31.93
2019-03-09T12:24:51.897Z,31.27
2019-03-09T12:25:56.395Z,32.24
2019-03-09T12:27:01.474Z,32.14
2019-03-09T12:28:06.477Z,32.14
2019-03-09T12:29:11.446Z,32.86
2019-03-09T12:30:17.043Z,31.98
2019-03-09T12:31:22.030Z,31.98
2019-03-09T12:32:26.711Z,31.94
2019-03-09T12:33:31.737Z,32.54
2019-03-09T12:34:37.011Z,32.03
2019-03-09T12:35:44.067Z,31.59
2019-03-09T12:36:48.678Z,31.66
2019-03-09T12:37:54.157Z,32.79
2019-03-09T12:38:59.178Z,33.40
2019-03-09T12:40:03.910Z,33.89
2019-03-09T12:41:08.942Z,33.23
2019-03-09T12:42:14.301Z,33.66
2019-03-09T12:43:19.001Z,33.75
2019-03-09T12:44:24.564Z,33.98
2019-03-09T12:45:29.613Z,33.93
2019-03-09T12:46:34.692Z,34.82
2019-03-09T12:47:39.384Z,34.16
2019-03-09T12:48:44.402Z,34.21
2019-03-09T12:49:49.119Z,34.47
2019-03-09T12:50:54.110Z,34.75
2019-03-09T12:51:58.865Z,34.22
2019-03-09T12:53:04.232Z,34.12
2019-03-09T12:54:08.948Z,34.36
2019-03-09T12:55:14.810Z,34.92
2019-03-09T12:56:20.333Z,34.04
2019-03-09T12:57:25.370Z,34.58
2019-03-09T12:58:30.100Z,34.88
2019-03-09T12:59:35.650Z,34.87
2019-03-09T13:00:40.138Z,34.47
2019-03-09T13:01:45.397Z,34.03
2019-03-09T13:02:50.382Z,34.01
2019-03-09T13:03:55.511Z,34.05
2019-03-09T13:05:00.954Z,33.53
2019-03-09T13:06:05.650Z,32.69
2019-03-09T13:07:10.937Z,33.60
2019-03-09T13:08:15.458Z,32.89
2019-03-09T13:09:20.140Z,34.10
2019-03-09T13:10:24.864Z,33.87
2019-03-09T13:11:30.000Z,33.94
2019-03-09T13:12:35.198Z,34.29
2019-03-09T13:13:39.695Z,34.48
2019-03-09T13:14:44.371Z,34.03
2019-03-09T13:15:49.655Z,34.33
2019-03-09T13:16:54.408Z,34.69
2019-03-09T13:17:59.689Z,34.60
2019-03-09T13:19:04.407Z,34.24
2019-03-09T13:20:09.441Z,33.99
2019-03-09T13:21:14.666Z,34.13
2019-03-09T13:22:19.664Z,34.29
2019-03-09T13:23:24.631Z,34.35
2019-03-09T13:24:29.689Z,34.29
2019-03-09T13:25:34.494Z,33.77
2019-03-09T13:26:39.582Z,33.99
2019-03-09T13:27:44.564Z,33.69
2019-03-09T13:28:49.583Z,33.15
2019-03-09T13:29:54.741Z,33.73
2019-03-09T13:31:00.296Z,33.50
2019-03-09T13:32:05.256Z,33.46
2019-03-09T13:33:09.942Z,33.13
2019-03-09T13:34:14.887Z,33.49
2019-03-09T13:35:19.754Z,33.73
2019-03-09T13:36:24.513Z,33.96
2019-03-09T13:37:28.979Z,33.76
2019-03-09T13:38:34.526Z,33.30
2019-03-09T13:39:39.201Z,32.88
2019-03-09T13:40:44.175Z,32.58
2019-03-09T13:41:49.178Z,32.72
2019-03-09T13:42:53.949Z,32.99
2019-03-09T13:43:59.196Z,33.87
2019-03-09T13:45:04.172Z,33.16
2019-03-09T13:46:09.541Z,33.51
2019-03-09T13:47:14.489Z,33.43
2019-03-09T13:48:19.647Z,33.68
2019-03-09T13:49:24.610Z,33.25
2019-03-09T13:50:30.049Z,32.46
2019-03-09T13:51:34.716Z,33.59
2019-03-09T13:52:39.656Z,33.72
2019-03-09T13:53:44.912Z,34.15
2019-03-09T13:54:50.329Z,33.58
2019-03-09T13:55:55.103Z,33.79
2019-03-09T13:56:59.837Z,34.44
2019-03-09T13:58:04.538Z,34.27
2019-03-09T13:59:09.307Z,36.02
2019-03-09T14:00:15.236Z,37.26
2019-03-09T14:01:20.550Z,37.90
2019-03-09T14:02:25.542Z,39.83
2019-03-09T14:03:30.601Z,41.31
2019-03-09T14:04:35.884Z,41.70
2019-03-09T14:05:41.456Z,43.95
2019-03-09T14:06:45.922Z,43.88
2019-03-09T14:07:51.204Z,43.01
2019-03-09T14:08:56.206Z,42.12